createdAt,value
2022-11-24T00:01:26.163Z,70.70
2022-11-24T00:04:04.597Z,70.80
2022-11-24T00:06:35.635Z,67.70
2022-11-24T00:09:05.557Z,64.10
2022-11-24T00:11:40.094Z,63.20
2022-11-24T00:14:10.603Z,64.80
2022-11-24T00:16:39.344Z,61.90
2022-11-24T00:19:09.580Z,60.60
2022-11-24T00:21:38.795Z,58.10
2022-11-24T00:24:07.182Z,59.40
2022-11-24T00:26:37.912Z,63.40
2022-11-24T00:29:08.085Z,60.70
2022-11-24T00:31:39.800Z,58.30
2022-11-24T00:34:12.414Z,54.90
2022-11-24T00:36:41.775Z,58.00
2022-11-24T00:39:15.556Z,63.10
2022-11-24T00:41:45.040Z,61.10
2022-11-24T00:44:13.672Z,60.70
2022-11-24T00:46:43.115Z,61.20
2022-11-24T00:49:12.067Z,62.20
2022-11-24T00:51:40.243Z,58.50
2022-11-24T00:54:09.746Z,58.40
2022-11-24T00:56:38.125Z,58.20
2022-11-24T00:59:06.605Z,55.90
2022-11-24T01:01:34.919Z,56.20
2022-11-24T01:04:04.077Z,55.10
2022-11-24T01:06:33.002Z,55.70
2022-11-24T01:09:02.587Z,55.90
2022-11-24T01:11:55.166Z,53.10
2022-11-24T01:14:25.622Z,56.30
2022-11-24T01:16:54.943Z,54.60
2022-11-24T01:19:23.949Z,55.10
2022-11-24T01:21:52.527Z,55.00
2022-11-24T01:24:21.217Z,53.30
2022-11-24T01:26:49.599Z,55.10
2022-11-24T01:29:17.915Z,56.50
2022-11-24T01:31:46.259Z,56.40
2022-11-24T01:34:14.421Z,58.40
2022-11-24T01:36:43.007Z,56.10
2022-11-24T01:39:11.396Z,54.10
2022-11-24T01:41:39.973Z,61.50
2022-11-24T01:44:23.134Z,56.90
2022-11-24T01:46:57.727Z,59.40
2022-11-24T01:49:41.776Z,58.30
2022-11-24T01:52:19.155Z,60.20
2022-11-24T01:54:55.407Z,59.40
2022-11-24T01:57:30.222Z,57.60
2022-11-24T02:00:11.913Z,56.50
2022-11-24T02:02:45.399Z,56.60
2022-11-24T02:05:22.115Z,58.30
2022-11-24T02:07:52.856Z,57.00
2022-11-24T02:10:21.944Z,54.80
2022-11-24T02:12:53.723Z,59.30
2022-11-24T02:15:23.003Z,57.80
2022-11-24T02:17:51.392Z,54.80
2022-11-24T02:20:20.063Z,58.70
2022-11-24T02:23:01.850Z,59.50
2022-11-24T02:25:49.585Z,55.50
2022-11-24T02:28:22.185Z,51.70
2022-11-24T02:30:51.672Z,55.50
2022-11-24T02:33:22.510Z,52.30
2022-11-24T02:35:51.194Z,54.30
2022-11-24T02:38:19.476Z,59.00
2022-11-24T02:40:49.801Z,57.80
2022-11-24T02:43:22.783Z,54.90
2022-11-24T02:45:51.364Z,57.90
2022-11-24T02:48:19.866Z,57.00
2022-11-24T02:50:48.334Z,58.30
2022-11-24T02:53:16.607Z,59.60
2022-11-24T02:55:45.095Z,54.70
2022-11-24T02:58:15.096Z,58.00
2022-11-24T03:00:43.596Z,57.60
2022-11-24T03:03:12.163Z,62.90
2022-11-24T03:05:41.069Z,56.10
2022-11-24T03:08:09.949Z,61.20
2022-11-24T03:10:38.370Z,56.90
2022-11-24T03:13:06.573Z,59.30
2022-11-24T03:15:35.149Z,58.40
2022-11-24T03:18:03.985Z,61.10
2022-11-24T03:20:32.655Z,62.90
2022-11-24T03:23:00.841Z,62.50
2022-11-24T03:25:30.043Z,62.80
2022-11-24T03:27:58.834Z,69.20
2022-11-24T03:30:28.049Z,67.70
2022-11-24T03:32:56.505Z,65.70
2022-11-24T03:35:24.717Z,64.60
2022-11-24T03:37:52.956Z,62.00
2022-11-24T03:40:21.223Z,71.40
2022-11-24T03:42:49.823Z,72.40
2022-11-24T03:48:08.651Z,75.50
2022-11-24T03:50:36.867Z,74.30
2022-11-24T03:53:05.154Z,76.20
2022-11-24T03:55:33.736Z,66.00
2022-11-24T03:58:02.761Z,69.50
2022-11-24T04:00:32.157Z,73.10
2022-11-24T04:03:01.308Z,68.10
2022-11-24T04:05:29.797Z,60.40
2022-11-24T04:07:58.391Z,71.20
2022-11-24T04:10:26.969Z,73.60
2022-11-24T04:12:55.556Z,85.10
2022-11-24T04:15:23.780Z,87.50
2022-11-24T04:17:55.717Z,79.70
2022-11-24T04:20:24.782Z,73.70
2022-11-24T04:22:53.264Z,74.60
2022-11-24T04:25:23.048Z,78.30
2022-11-24T04:27:55.059Z,72.60
2022-11-24T04:30:25.634Z,69.80
2022-11-24T04:32:54.779Z,63.40
2022-11-24T04:35:23.427Z,57.20
2022-11-24T04:37:52.929Z,59.80
2022-11-24T04:40:21.727Z,70.80
2022-11-24T04:42:57.365Z,67.50
2022-11-24T04:45:25.895Z,65.40
2022-11-24T04:47:54.380Z,68.70
2022-11-24T04:50:23.288Z,61.90
2022-11-24T04:52:52.780Z,66.90
2022-11-24T04:55:21.249Z,60.80
2022-11-24T04:57:49.626Z,63.80
2022-11-24T05:00:20.299Z,63.80
2022-11-24T05:02:48.752Z,63.20
2022-11-24T05:05:17.637Z,60.60
2022-11-24T05:07:46.050Z,55.10
2022-11-24T05:10:33.491Z,51.90
2022-11-24T05:13:10.314Z,63.60
2022-11-24T05:15:40.647Z,55.10
2022-11-24T05:18:12.690Z,62.90
2022-11-24T05:20:41.703Z,74.50
2022-11-24T05:23:10.389Z,73.80
2022-11-24T05:25:40.521Z,69.20
2022-11-24T05:28:12.685Z,68.60
2022-11-24T05:30:42.281Z,71.00
2022-11-24T05:33:19.177Z,73.30
2022-11-24T05:35:51.982Z,65.40
2022-11-24T05:38:22.889Z,53.20
2022-11-24T05:40:51.669Z,54.20
2022-11-24T05:43:20.159Z,62.60
2022-11-24T05:45:50.167Z,59.90
2022-11-24T05:48:19.370Z,57.70
2022-11-24T05:50:55.230Z,57.70
2022-11-24T05:53:24.560Z,60.80
2022-11-24T05:55:53.716Z,61.90
2022-11-24T05:58:23.173Z,65.10
2022-11-24T06:00:52.210Z,57.40
2022-11-24T06:03:20.757Z,53.00
2022-11-24T06:05:49.654Z,55.70
2022-11-24T06:08:18.493Z,51.70
2022-11-24T06:10:47.784Z,54.80
2022-11-24T06:13:17.473Z,51.50
2022-11-24T06:15:46.907Z,44.80
2022-11-24T06:18:15.413Z,47.40
2022-11-24T06:21:02.805Z,44.40
2022-11-24T06:23:34.156Z,32.70
2022-11-24T06:26:02.976Z,28.80
2022-11-24T06:28:32.446Z,42.90
2022-11-24T06:31:02.973Z,50.00
2022-11-24T06:33:36.749Z,24.40
2022-11-24T06:36:08.666Z,35.90
2022-11-24T06:38:37.846Z,45.00
2022-11-24T06:41:15.414Z,51.70
2022-11-24T06:43:45.151Z,50.60
2022-11-24T06:46:15.584Z,56.80
2022-11-24T06:48:44.358Z,49.80
2022-11-24T06:51:13.914Z,46.50
2022-11-24T06:53:42.657Z,47.80
2022-11-24T06:56:16.738Z,46.20
2022-11-24T06:58:48.245Z,54.40
2022-11-24T07:01:23.873Z,53.40
2022-11-24T07:03:54.490Z,54.50
2022-11-24T07:06:25.754Z,51.70
2022-11-24T07:08:54.516Z,53.20
2022-11-24T07:11:24.599Z,54.70
2022-11-24T07:13:59.489Z,55.70
2022-11-24T07:16:29.796Z,55.60
2022-11-24T07:19:01.107Z,51.70
2022-11-24T07:21:31.275Z,56.00
2022-11-24T07:24:00.469Z,61.80
2022-11-24T07:26:29.526Z,56.30
2022-11-24T07:28:58.462Z,57.90
2022-11-24T07:31:27.242Z,54.80
2022-11-24T07:33:56.881Z,60.70
2022-11-24T07:36:27.645Z,61.10
2022-11-24T07:38:58.089Z,57.70
2022-11-24T07:41:28.565Z,56.20
2022-11-24T07:43:57.642Z,57.70
2022-11-24T07:46:26.596Z,58.70
2022-11-24T07:48:55.359Z,60.30
2022-11-24T07:51:24.531Z,53.70
2022-11-24T07:53:53.710Z,58.60
2022-11-24T07:56:22.516Z,53.90
2022-11-24T07:58:53.160Z,56.30
2022-11-24T08:01:22.471Z,56.30
2022-11-24T08:03:52.043Z,55.80
2022-11-24T08:06:27.187Z,59.40
2022-11-24T08:08:58.243Z,64.80
2022-11-24T08:11:27.631Z,63.80
2022-11-24T08:13:56.551Z,58.50
2022-11-24T08:16:25.464Z,57.50
2022-11-24T08:18:55.683Z,57.50
2022-11-24T08:21:24.932Z,57.70
2022-11-24T08:23:57.297Z,55.00
2022-11-24T08:26:26.313Z,54.50
2022-11-24T08:28:58.413Z,57.50
2022-11-24T08:31:33.813Z,55.30
2022-11-24T08:34:05.471Z,53.30
2022-11-24T08:36:36.382Z,53.90
2022-11-24T08:39:04.989Z,53.80
2022-11-24T08:41:33.566Z,55.90
2022-11-24T08:44:01.942Z,55.80
2022-11-24T08:46:30.622Z,58.00
2022-11-24T08:48:59.429Z,59.80
2022-11-24T08:51:28.321Z,70.80
2022-11-24T08:53:59.171Z,71.70
2022-11-24T08:56:29.784Z,73.30
2022-11-24T08:58:58.884Z,67.10
2022-11-24T09:01:28.147Z,75.30
2022-11-24T09:03:56.978Z,64.00
2022-11-24T09:06:27.998Z,56.40
2022-11-24T09:08:57.305Z,57.90
2022-11-24T09:11:27.641Z,70.60
2022-11-24T09:13:56.147Z,77.90
2022-11-24T09:16:27.964Z,64.40
2022-11-24T09:19:01.676Z,59.50
2022-11-24T09:21:34.363Z,60.20
2022-11-24T09:24:03.052Z,64.50
2022-11-24T09:26:34.904Z,56.90
2022-11-24T09:29:05.564Z,54.80
2022-11-24T09:31:36.591Z,57.60
2022-11-24T09:34:12.769Z,59.00
2022-11-24T09:36:41.844Z,58.50
2022-11-24T09:39:11.133Z,62.30
2022-11-24T09:42:06.860Z,64.70
2022-11-24T09:44:52.841Z,64.60
2022-11-24T09:47:47.337Z,61.90
2022-11-24T09:50:22.785Z,61.70
2022-11-24T09:52:54.553Z,60.20
2022-11-24T09:55:31.833Z,60.20
2022-11-24T09:58:39.102Z,63.70
2022-11-24T10:01:19.936Z,60.60
2022-11-24T10:03:53.081Z,44.80
2022-11-24T10:06:31.551Z,56.70
2022-11-24T10:09:34.186Z,55.60
2022-11-24T10:12:19.238Z,58.80
2022-11-24T10:18:44.774Z,61.60
2022-11-24T10:21:45.616Z,57.30
2022-11-24T10:24:41.243Z,62.00
2022-11-24T10:27:14.666Z,58.10
2022-11-24T10:29:45.256Z,60.80
2022-11-24T10:32:21.040Z,66.40
2022-11-24T10:34:54.374Z,70.30
2022-11-24T10:37:32.240Z,73.50
2022-11-24T10:40:05.180Z,69.20
2022-11-24T10:42:39.099Z,68.40
2022-11-24T10:45:15.989Z,67.10
2022-11-24T10:47:47.370Z,67.40
2022-11-24T10:50:24.673Z,63.30
2022-11-24T10:53:19.326Z,68.50
2022-11-24T10:55:57.542Z,72.50
2022-11-24T10:58:40.766Z,63.60
2022-11-24T11:01:15.452Z,68.00
2022-11-24T11:03:51.148Z,71.60
2022-11-24T11:06:27.578Z,68.90
2022-11-24T11:09:08.389Z,61.40
2022-11-24T11:11:40.206Z,65.70
2022-11-24T11:14:12.521Z,60.10
2022-11-24T11:16:46.370Z,55.80
2022-11-24T11:20:00.089Z,62.00
2022-11-24T11:22:36.210Z,62.30
2022-11-24T11:25:18.935Z,60.10
2022-11-24T11:27:48.647Z,59.50
2022-11-24T11:36:14.214Z,64.20
2022-11-24T11:38:44.534Z,65.20
2022-11-24T11:41:35.138Z,61.60
2022-11-24T11:44:19.176Z,92.70
2022-11-24T11:46:47.809Z,76.30
2022-11-24T11:49:16.967Z,66.20
2022-11-24T11:52:13.619Z,67.40
2022-11-24T11:54:47.329Z,66.50
2022-11-24T11:57:39.134Z,119.30
2022-11-24T12:00:19.272Z,77.40
2022-11-24T12:03:15.833Z,67.40
2022-11-24T12:06:08.976Z,71.70
2022-11-24T12:09:32.937Z,76.20
2022-11-24T12:12:32.438Z,69.90
2022-11-24T12:15:16.100Z,69.10
2022-11-24T12:17:55.238Z,69.00
2022-11-24T12:20:55.969Z,66.90
2022-11-24T12:23:43.297Z,65.60
2022-11-24T12:26:38.393Z,66.70
2022-11-24T12:29:47.950Z,65.20
2022-11-24T12:32:35.080Z,73.10
2022-11-24T12:35:18.300Z,74.30
2022-11-24T12:37:53.756Z,66.20
2022-11-24T12:40:22.209Z,77.20
2022-11-24T12:42:57.977Z,81.10
2022-11-24T12:45:40.298Z,70.10
2022-11-24T12:48:21.065Z,63.70
2022-11-24T12:50:52.130Z,72.00
2022-11-24T12:53:34.185Z,66.30
2022-11-24T12:56:10.336Z,66.00
2022-11-24T12:58:51.007Z,61.00
2022-11-24T13:01:31.117Z,63.80
2022-11-24T13:04:30.974Z,63.80
2022-11-24T13:07:21.097Z,60.40
2022-11-24T13:10:46.605Z,74.50
2022-11-24T13:13:15.169Z,64.30
2022-11-24T13:16:07.137Z,60.70
2022-11-24T13:19:08.616Z,65.10
2022-11-24T13:21:37.158Z,57.40
2022-11-24T13:24:07.420Z,57.70
2022-11-24T13:26:41.517Z,60.10
2022-11-24T13:29:29.319Z,53.50
2022-11-24T13:32:07.219Z,68.40
2022-11-24T13:34:42.896Z,72.10
2022-11-24T13:37:34.667Z,65.70
2022-11-24T13:40:13.760Z,64.60
2022-11-24T13:43:08.620Z,71.50
2022-11-24T13:45:40.831Z,68.50
2022-11-24T13:48:19.099Z,76.80
2022-11-24T13:50:51.301Z,66.80
2022-11-24T13:53:38.884Z,68.90
2022-11-24T13:56:13.789Z,60.20
2022-11-24T13:58:47.074Z,62.30
2022-11-24T14:01:24.118Z,60.00
2022-11-24T14:04:43.254Z,63.30
2022-11-24T14:07:15.342Z,63.20
2022-11-24T14:09:52.648Z,65.20
2022-11-24T14:12:26.067Z,61.60
2022-11-24T14:15:13.142Z,67.80
2022-11-24T14:17:41.545Z,62.80
2022-11-24T14:20:22.599Z,66.10
2022-11-24T14:22:52.103Z,67.90
2022-11-24T14:25:30.202Z,61.50
2022-11-24T14:28:00.866Z,68.60
2022-11-24T14:30:29.847Z,64.70
2022-11-24T14:33:00.807Z,64.40
2022-11-24T14:35:29.247Z,63.00
2022-11-24T14:37:58.653Z,65.10
2022-11-24T14:40:48.662Z,67.60
2022-11-24T14:43:26.024Z,65.60
2022-11-24T14:45:58.734Z,61.90
2022-11-24T14:48:30.864Z,66.10
2022-11-24T14:51:11.766Z,69.10
2022-11-24T14:53:45.261Z,72.20
2022-11-24T14:56:28.067Z,70.10
2022-11-24T14:58:58.180Z,70.20
2022-11-24T15:01:26.664Z,76.80
2022-11-24T15:04:32.509Z,72.90
2022-11-24T15:07:29.379Z,76.80
2022-11-24T15:10:00.937Z,76.70
2022-11-24T15:12:35.049Z,81.40
2022-11-24T15:15:15.397Z,86.50
2022-11-24T15:17:50.729Z,78.60
2022-11-24T15:20:42.059Z,76.30
2022-11-24T15:23:24.985Z,81.80
2022-11-24T15:25:55.402Z,83.40
2022-11-24T15:28:28.273Z,71.50
2022-11-24T15:31:01.402Z,68.60
2022-11-24T15:33:30.869Z,68.60
2022-11-24T15:36:00.302Z,67.00
2022-11-24T15:38:29.068Z,64.20
2022-11-24T15:41:00.328Z,70.00
2022-11-24T15:43:40.840Z,73.90
2022-11-24T15:46:10.789Z,76.80
2022-11-24T15:48:40.006Z,77.40
2022-11-24T15:51:14.321Z,74.30
2022-11-24T15:53:46.377Z,76.70
2022-11-24T15:56:29.404Z,84.50
2022-11-24T15:58:57.853Z,80.10
2022-11-24T16:01:32.105Z,72.40
2022-11-24T16:04:02.111Z,69.10
2022-11-24T16:06:30.707Z,72.00
2022-11-24T16:08:59.392Z,72.80
2022-11-24T16:11:28.310Z,70.20
2022-11-24T16:13:57.114Z,68.30
2022-11-24T16:16:26.145Z,66.70
2022-11-24T16:18:55.056Z,72.40
2022-11-24T16:21:24.432Z,66.90
2022-11-24T16:23:53.456Z,66.50
2022-11-24T16:26:22.878Z,64.70
2022-11-24T16:28:52.254Z,62.10
2022-11-24T16:31:21.100Z,59.00
2022-11-24T16:33:50.950Z,65.00
2022-11-24T16:36:20.876Z,63.70
2022-11-24T16:38:49.640Z,73.00
2022-11-24T16:41:18.155Z,68.70
2022-11-24T16:43:47.938Z,66.70
2022-11-24T16:46:21.017Z,78.60
2022-11-24T16:48:53.747Z,81.00
2022-11-24T16:51:31.376Z,65.10
2022-11-24T16:54:07.436Z,79.60
2022-11-24T16:56:38.255Z,73.30
2022-11-24T16:59:08.565Z,85.80
2022-11-24T17:01:41.111Z,102.30
2022-11-24T17:04:12.721Z,72.80
2022-11-24T17:06:43.510Z,72.50
2022-11-24T17:09:15.090Z,67.20
2022-11-24T17:11:46.271Z,67.80
2022-11-24T17:14:17.184Z,64.70
2022-11-24T17:16:47.881Z,61.70
2022-11-24T17:19:18.347Z,61.50
2022-11-24T17:21:49.323Z,59.00
2022-11-24T17:24:20.254Z,56.80
2022-11-24T17:26:52.526Z,68.50
2022-11-24T17:29:23.731Z,58.70
2022-11-24T17:31:54.243Z,58.90
2022-11-24T17:34:24.478Z,58.90
2022-11-24T17:36:55.474Z,62.40
2022-11-24T17:39:25.919Z,64.10
2022-11-24T17:41:55.418Z,78.70
2022-11-24T17:44:25.017Z,68.70
2022-11-24T17:46:55.134Z,71.10
2022-11-24T17:49:24.556Z,68.20
2022-11-24T17:51:55.805Z,67.10
2022-11-24T17:54:56.638Z,70.60
2022-11-24T17:57:16.900Z,72.80
2022-11-24T17:59:47.551Z,81.30
2022-11-24T18:02:16.631Z,79.70
2022-11-24T18:04:45.938Z,78.90
2022-11-24T18:07:14.851Z,83.50
2022-11-24T18:09:44.577Z,93.80
2022-11-24T18:12:16.414Z,87.70
2022-11-24T18:14:46.941Z,78.90
2022-11-24T18:17:16.138Z,67.30
2022-11-24T18:19:45.011Z,70.90
2022-11-24T18:22:14.121Z,66.90
2022-11-24T18:24:42.709Z,66.80
2022-11-24T18:27:12.696Z,66.40
2022-11-24T18:29:42.028Z,81.20
2022-11-24T18:32:11.667Z,70.30
2022-11-24T18:34:40.633Z,72.90
2022-11-24T18:37:13.929Z,69.20
2022-11-24T18:39:43.281Z,75.80
2022-11-24T18:42:17.178Z,80.00
2022-11-24T18:44:52.495Z,73.80
2022-11-24T18:47:23.307Z,76.60
2022-11-24T18:49:52.818Z,65.80
2022-11-24T18:52:23.031Z,67.20
2022-11-24T18:54:52.355Z,62.90
2022-11-24T18:57:21.809Z,62.40
2022-11-24T18:59:51.874Z,61.80
2022-11-24T19:02:21.233Z,68.10
2022-11-24T19:04:51.415Z,69.90
2022-11-24T19:07:21.375Z,69.30
2022-11-24T19:09:51.234Z,63.80
2022-11-24T19:12:20.905Z,66.20
2022-11-24T19:14:50.981Z,71.60
2022-11-24T19:17:21.683Z,79.10
2022-11-24T19:19:52.282Z,76.40
2022-11-24T19:22:22.421Z,74.60
2022-11-24T19:24:51.849Z,76.30
2022-11-24T19:27:22.390Z,98.00
2022-11-24T19:29:55.260Z,77.00
2022-11-24T19:32:24.699Z,83.40
2022-11-24T19:34:54.055Z,76.80
2022-11-24T19:37:23.887Z,80.30
2022-11-24T19:39:54.095Z,61.90
2022-11-24T19:42:23.602Z,62.80
2022-11-24T19:44:56.433Z,66.30
2022-11-24T19:47:28.094Z,62.60
2022-11-24T19:49:57.478Z,69.90
2022-11-24T19:52:30.645Z,61.50
2022-11-24T19:55:00.324Z,69.90
2022-11-24T19:57:29.426Z,72.10
2022-11-24T19:59:58.510Z,67.60
2022-11-24T20:02:30.144Z,70.60
2022-11-24T20:04:58.852Z,77.30
2022-11-24T20:07:28.547Z,73.60
2022-11-24T20:10:00.820Z,70.60
2022-11-24T20:12:35.371Z,65.50
2022-11-24T20:15:05.292Z,63.00
2022-11-24T20:17:34.897Z,66.10
2022-11-24T20:20:04.803Z,72.60
2022-11-24T20:22:35.296Z,74.50
2022-11-24T20:25:05.971Z,73.60
2022-11-24T20:27:36.498Z,77.40
2022-11-24T20:30:07.302Z,76.40
2022-11-24T20:32:37.372Z,73.50
2022-11-24T20:35:07.021Z,79.10
2022-11-24T20:37:35.744Z,74.80
2022-11-24T20:40:06.984Z,79.70
2022-11-24T20:42:37.723Z,85.00
2022-11-24T20:45:07.328Z,85.90
2022-11-24T20:47:37.243Z,84.60
2022-11-24T20:50:06.639Z,81.10
2022-11-24T20:52:35.889Z,84.60
2022-11-24T20:55:07.350Z,77.20
2022-11-24T20:57:36.958Z,74.20
2022-11-24T21:00:07.036Z,78.20
2022-11-24T21:02:36.288Z,78.80
2022-11-24T21:05:07.032Z,77.90
2022-11-24T21:07:36.167Z,84.30
2022-11-24T21:10:07.379Z,73.90
2022-11-24T21:12:36.598Z,74.80
2022-11-24T21:15:08.145Z,75.80
2022-11-24T21:17:40.427Z,77.20
2022-11-24T21:20:11.370Z,76.40
2022-11-24T21:22:41.177Z,76.10
2022-11-24T21:25:09.855Z,83.40
2022-11-24T21:27:38.845Z,79.90
2022-11-24T21:30:09.662Z,77.50
2022-11-24T21:32:38.475Z,87.80
2022-11-24T21:35:07.874Z,76.80
2022-11-24T21:37:36.691Z,81.60
2022-11-24T21:40:06.374Z,73.20
2022-11-24T21:42:35.073Z,76.30
2022-11-24T21:45:04.573Z,69.10
2022-11-24T21:47:34.174Z,74.10
2022-11-24T21:50:04.287Z,87.50
2022-11-24T21:52:33.477Z,79.80
2022-11-24T21:55:01.868Z,76.50
2022-11-24T21:57:30.752Z,82.70
2022-11-24T21:59:59.401Z,75.50
2022-11-24T22:02:28.037Z,76.60
2022-11-24T22:04:56.738Z,68.10
2022-11-24T22:07:25.133Z,74.90
2022-11-24T22:09:53.491Z,73.20
2022-11-24T22:12:21.713Z,77.70
2022-11-24T22:14:50.220Z,71.30
2022-11-24T22:17:18.509Z,74.90
2022-11-24T22:19:47.799Z,71.20
2022-11-24T22:22:16.395Z,71.20
2022-11-24T22:24:44.870Z,72.10
2022-11-24T22:27:16.440Z,70.80
2022-11-24T22:29:50.047Z,74.20
2022-11-24T22:32:22.591Z,69.10
2022-11-24T22:34:50.981Z,68.50
2022-11-24T22:37:19.369Z,72.60
2022-11-24T22:39:47.940Z,83.10
2022-11-24T22:42:17.138Z,79.50
2022-11-24T22:44:45.824Z,73.20
2022-11-24T22:47:15.228Z,76.10
2022-11-24T22:49:43.718Z,86.20
2022-11-24T22:52:14.999Z,74.50
2022-11-24T22:54:43.438Z,88.50
2022-11-24T22:57:13.974Z,80.50
2022-11-24T22:59:42.446Z,87.90
2022-11-24T23:02:10.930Z,69.20
2022-11-24T23:04:39.217Z,66.80
2022-11-24T23:07:07.678Z,70.70
2022-11-24T23:09:36.066Z,79.80
2022-11-24T23:12:05.163Z,80.00
2022-11-24T23:14:33.923Z,75.30
2022-11-24T23:17:02.633Z,69.80
2022-11-24T23:19:30.910Z,72.00
2022-11-24T23:21:59.502Z,69.60
2022-11-24T23:24:27.868Z,66.50
2022-11-24T23:26:56.141Z,72.80
2022-11-24T23:29:24.428Z,66.70
2022-11-24T23:31:52.896Z,64.90
2022-11-24T23:34:21.499Z,68.50
2022-11-24T23:36:49.878Z,65.50
2022-11-24T23:39:18.254Z,66.50
2022-11-24T23:41:46.631Z,65.10
2022-11-24T23:44:15.626Z,71.70
2022-11-24T23:46:43.803Z,69.30
2022-11-24T23:49:12.273Z,67.50
2022-11-24T23:51:42.298Z,68.90
2022-11-24T23:54:10.480Z,68.70
2022-11-24T23:56:38.590Z,72.50
2022-11-24T23:59:06.738Z,83.30
